Time;durP1;ratioP1;P1;durP2;ratioP2;P2;SDS_P1;SDS_P2;PMS_P1;PMS_P2;Temp;Humidity;BMP_temperature;BMP_pressure;BME280_temperature;BME280_humidity;BME280_pressure;Samples;Min_cycle;Max_cycle;Signal;HPM_P1;HPM_P2
2022/09/25 00:01:08;;;;;;;11.73;10.63;;;14.90;99.90;;;;;;5071377;28;20871;-48
2022/09/25 00:03:35;;;;;;;11.30;10.13;;;13.90;99.90;;;;;;5071806;28;20912;-48
2022/09/25 00:06:03;;;;;;;10.60;9.70;;;14.40;99.90;;;;;;5072239;28;20441;-48
2022/09/25 00:08:31;;;;;;;10.70;9.80;;;14.40;99.90;;;;;;5071717;28;20452;-48
2022/09/25 00:10:57;;;;;;;10.47;9.67;;;14.70;99.90;;;;;;5070839;28;20614;-48
2022/09/25 00:13:26;;;;;;;10.73;9.90;;;13.90;99.90;;;;;;5071969;28;20433;-48
2022/09/25 00:15:54;;;;;;;10.40;9.60;;;14.00;99.90;;;;;;5071865;28;20442;-47
2022/09/25 00:19:48;;;;;;;11.03;10.00;;;13.90;99.90;;;;;;5071595;28;20441;-48
2022/09/25 00:21:11;;;;;;;11.00;10.10;;;14.40;99.90;;;;;;5071364;28;20480;-47
2022/09/25 00:23:38;;;;;;;10.00;9.10;;;13.80;99.90;;;;;;5070595;28;20448;-48
2022/09/25 00:26:06;;;;;;;10.30;9.40;;;14.30;99.90;;;;;;5071796;28;20443;-48
2022/09/25 00:28:35;;;;;;;12.10;11.00;;;14.40;99.90;;;;;;5070338;28;20468;-48
2022/09/25 00:31:01;;;;;;;10.37;9.47;;;14.20;99.90;;;;;;5071378;28;20478;-47
2022/09/25 00:33:28;;;;;;;10.40;9.33;;;14.30;99.90;;;;;;5071759;28;20432;-48
2022/09/25 00:35:55;;;;;;;9.90;9.10;;;14.20;99.90;;;;;;5071713;28;20439;-48
2022/09/25 00:38:21;;;;;;;11.60;10.50;;;14.50;99.90;;;;;;5071546;28;20422;-48
2022/09/25 00:40:48;;;;;;;10.07;9.17;;;14.30;99.90;;;;;;5071542;28;20433;-48
2022/09/25 00:43:15;;;;;;;9.80;9.00;;;14.40;99.90;;;;;;5071683;28;20949;-48
2022/09/25 00:45:44;;;;;;;10.33;9.33;;;14.50;99.90;;;;;;5071585;28;20437;-48
2022/09/25 00:48:14;;;;;;;11.17;9.63;;;14.20;99.90;;;;;;5071591;28;20425;-48
2022/09/25 00:50:49;;;;;;;9.97;9.07;;;14.10;99.90;;;;;;5071136;28;20870;-48
2022/09/25 00:53:20;;;;;;;11.00;10.00;;;14.30;99.90;;;;;;5071888;28;20421;-47
2022/09/25 00:55:47;;;;;;;8.70;7.90;;;14.30;99.90;;;;;;5071613;28;20433;-47
2022/09/25 00:58:16;;;;;;;10.03;9.13;;;14.60;99.90;;;;;;5071714;28;20430;-47
2022/09/25 01:00:45;;;;;;;8.90;8.10;;;14.00;99.90;;;;;;5070947;28;20512;-47
2022/09/25 01:03:12;;;;;;;10.03;8.87;;;14.50;99.90;;;;;;5071362;28;20468;-48
2022/09/25 01:05:42;;;;;;;9.70;8.90;;;14.00;99.90;;;;;;5071760;28;20786;-48
2022/09/25 01:08:13;;;;;;;9.27;8.43;;;14.20;99.90;;;;;;5071445;28;20433;-48
2022/09/25 01:10:40;;;;;;;10.23;9.30;;;14.40;99.90;;;;;;5071137;28;20481;-47
2022/09/25 01:13:07;;;;;;;8.33;7.63;;;14.10;99.90;;;;;;5072467;28;20480;-47
2022/09/25 01:15:42;;;;;;;10.30;9.27;;;14.50;99.90;;;;;;5075519;28;20451;-47
2022/09/25 01:18:18;;;;;;;9.33;8.40;;;14.30;99.90;;;;;;5075396;28;20444;-48
2022/09/25 01:21:05;;;;;;;8.90;8.00;;;14.60;99.90;;;;;;5075095;28;20780;-48
2022/09/25 01:23:55;;;;;;;8.37;7.67;;;14.40;99.90;;;;;;5075159;28;20486;-48
2022/09/25 01:26:37;;;;;;;8.60;7.80;;;14.30;99.90;;;;;;5075136;28;20436;-48
2022/09/25 01:29:12;;;;;;;9.23;8.43;;;14.60;99.90;;;;;;5074789;28;20433;-49
2022/09/25 01:31:45;;;;;;;16.30;8.90;;;14.70;99.90;;;;;;5074529;28;20488;-48
2022/09/25 01:34:18;;;;;;;9.67;8.77;;;14.30;99.90;;;;;;5074933;28;20429;-48
2022/09/25 01:36:50;;;;;;;9.33;8.40;;;14.50;99.90;;;;;;5074836;28;20441;-49
2022/09/25 01:39:21;;;;;;;10.00;9.00;;;14.40;99.90;;;;;;5074716;28;20429;-48
2022/09/25 01:41:54;;;;;;;8.20;7.40;;;14.10;99.90;;;;;;5075018;28;20798;-48
2022/09/25 01:44:27;;;;;;;8.13;7.43;;;14.80;99.90;;;;;;5074810;28;20479;-47
2022/09/25 01:46:56;;;;;;;9.03;7.47;;;14.50;99.90;;;;;;5074680;28;20468;-49
2022/09/25 01:49:27;;;;;;;8.30;7.60;;;14.30;99.90;;;;;;5074501;28;20433;-48
2022/09/25 01:51:56;;;;;;;9.13;8.30;;;14.20;99.90;;;;;;5074556;28;20512;-49
2022/09/25 01:54:28;;;;;;;19.87;8.43;;;14.50;99.90;;;;;;5074864;28;20433;-48
2022/09/25 01:57:00;;;;;;;9.13;8.13;;;14.90;99.90;;;;;;5074967;28;20437;-49
2022/09/25 01:59:34;;;;;;;8.60;7.90;;;14.40;99.90;;;;;;5074189;28;20847;-48
2022/09/25 02:02:05;;;;;;;7.60;6.90;;;14.20;99.90;;;;;;5074737;28;21000;-48
2022/09/25 02:04:35;;;;;;;8.53;7.73;;;14.50;99.90;;;;;;5073091;28;20468;-48
2022/09/25 02:07:05;;;;;;;8.20;7.40;;;14.50;99.90;;;;;;5074598;28;20951;-47
2022/09/25 02:09:36;;;;;;;6.80;6.10;;;14.50;99.90;;;;;;5074092;28;20440;-48
2022/09/25 02:12:11;;;;;;;7.57;6.93;;;14.10;99.90;;;;;;5074267;28;20492;-48
2022/09/25 02:14:43;;;;;;;7.70;6.63;;;14.20;99.90;;;;;;5074164;28;20425;-48
2022/09/25 02:20:30;;;;;;;7.10;6.53;;;14.40;99.90;;;;;;5074261;28;20437;-49
2022/09/25 02:22:47;;;;;;;7.30;6.70;;;14.70;99.90;;;;;;5073787;28;20468;-48
2022/09/25 02:25:20;;;;;;;7.00;6.40;;;14.80;99.90;;;;;;5073055;28;20430;-48
2022/09/25 02:27:46;;;;;;;7.10;6.50;;;14.30;99.90;;;;;;5073982;28;20785;-48
2022/09/25 02:30:16;;;;;;;6.87;6.27;;;14.80;99.90;;;;;;5073201;28;20443;-48
2022/09/25 02:32:42;;;;;;;7.00;6.37;;;14.40;99.90;;;;;;5072663;28;20472;-49
2022/09/25 02:35:09;;;;;;;6.77;6.17;;;15.00;99.90;;;;;;5073991;28;20438;-49
2022/09/25 02:37:37;;;;;;;8.63;6.80;;;14.40;99.90;;;;;;5074038;28;20474;-48
2022/09/25 02:40:04;;;;;;;7.37;6.13;;;14.70;99.90;;;;;;5073554;28;20440;-49
2022/09/25 02:42:38;;;;;;;6.50;6.00;;;14.70;99.90;;;;;;5073691;28;20977;-48
2022/09/25 02:45:20;;;;;;;7.60;6.90;;;14.20;99.90;;;;;;5073703;28;20442;-48
2022/09/25 02:48:01;;;;;;;7.67;6.90;;;14.50;99.90;;;;;;5073700;28;20434;-49
2022/09/25 02:50:36;;;;;;;9.30;6.80;;;14.40;99.90;;;;;;5073175;28;20473;-48
2022/09/25 02:53:10;;;;;;;7.43;6.80;;;14.60;99.90;;;;;;5073666;28;20524;-49
2022/09/25 02:55:40;;;;;;;7.47;6.83;;;14.80;99.90;;;;;;5073436;28;20438;-47
2022/09/25 02:58:13;;;;;;;7.90;6.60;;;14.30;99.90;;;;;;5073754;28;20781;-49
2022/09/25 03:00:45;;;;;;;8.40;7.70;;;14.60;99.90;;;;;;5071598;28;20495;-48
2022/09/25 03:03:15;;;;;;;7.27;6.23;;;14.40;99.90;;;;;;5073280;28;20936;-48
2022/09/25 03:05:42;;;;;;;9.43;6.63;;;14.20;99.90;;;;;;5073273;28;20814;-49
2022/09/25 03:10:54;;;;;;;11.13;7.10;;;14.30;99.90;;;;;;5073042;28;20475;-48
2022/09/25 03:13:25;;;;;;;7.60;7.00;;;14.80;99.90;;;;;;5073052;28;20787;-48
2022/09/25 03:15:58;;;;;;;8.10;7.07;;;14.50;99.90;;;;;;5073300;28;20430;-48
2022/09/25 03:18:25;;;;;;;7.53;6.93;;;14.50;99.90;;;;;;5073386;28;20490;-48
2022/09/25 03:20:52;;;;;;;7.30;6.60;;;14.50;99.90;;;;;;5072506;28;20460;-48
2022/09/25 03:23:18;;;;;;;8.40;7.37;;;14.30;99.90;;;;;;5073077;28;21004;-48
2022/09/25 03:25:46;;;;;;;7.93;7.23;;;14.40;99.90;;;;;;5073116;28;20430;-48
2022/09/25 03:28:14;;;;;;;8.40;7.50;;;14.60;99.90;;;;;;5071748;28;20442;-49
2022/09/25 03:30:41;;;;;;;7.77;7.17;;;14.10;99.90;;;;;;5072341;28;20476;-48
2022/09/25 03:33:10;;;;;;;7.87;7.17;;;14.70;99.90;;;;;;5072640;28;20460;-49
2022/09/25 03:35:37;;;;;;;10.00;7.10;;;14.90;99.90;;;;;;5071663;28;20813;-49
2022/09/25 03:38:04;;;;;;;7.73;7.00;;;14.80;99.90;;;;;;5072709;28;20425;-48
2022/09/25 03:40:31;;;;;;;8.60;7.80;;;14.50;99.90;;;;;;5072270;28;20468;-48
2022/09/25 03:42:58;;;;;;;8.20;7.20;;;13.90;99.90;;;;;;5071129;28;20468;-48
2022/09/25 03:45:24;;;;;;;8.87;7.57;;;14.60;99.90;;;;;;5072571;28;20440;-48
2022/09/25 03:47:51;;;;;;;7.63;6.70;;;14.90;99.90;;;;;;5072384;28;20429;-48
2022/09/25 03:50:19;;;;;;;8.93;8.07;;;14.20;99.90;;;;;;5072077;28;20452;-48
2022/09/25 03:52:45;;;;;;;8.37;7.57;;;14.00;99.90;;;;;;5072349;28;20491;-48
2022/09/25 03:55:12;;;;;;;8.33;7.43;;;14.40;99.90;;;;;;5071149;28;20445;-47
2022/09/25 03:57:40;;;;;;;8.20;7.00;;;14.50;99.90;;;;;;5072282;28;20485;-46
2022/09/25 04:00:07;;;;;;;10.40;9.30;;;14.40;99.90;;;;;;5071979;28;20938;-49
2022/09/25 04:02:39;;;;;;;9.93;8.93;;;14.30;99.90;;;;;;5071276;28;20469;-46
2022/09/25 04:05:08;;;;;;;8.27;7.47;;;14.80;99.90;;;;;;5072305;28;20441;-46
2022/09/25 04:07:36;;;;;;;9.73;8.10;;;14.40;99.90;;;;;;5072282;28;20484;-46
2022/09/25 04:10:03;;;;;;;9.40;8.40;;;14.20;99.90;;;;;;5071938;28;20429;-49
2022/09/25 04:12:30;;;;;;;9.20;8.27;;;14.30;99.90;;;;;;5072168;28;20484;-48
2022/09/25 04:14:56;;;;;;;9.43;8.63;;;14.30;99.90;;;;;;5072073;28;20465;-46
2022/09/25 04:17:23;;;;;;;9.30;8.00;;;13.90;99.90;;;;;;5071774;28;20442;-46
2022/09/25 04:19:51;;;;;;;9.30;8.50;;;14.50;99.90;;;;;;5071906;28;20449;-46
2022/09/25 04:22:18;;;;;;;9.53;8.63;;;14.40;99.90;;;;;;5095646;22;20555;-45
2022/09/25 04:24:49;;;;;;;9.73;8.83;;;14.30;99.90;;;;;;5071511;28;20507;-44
2022/09/25 04:27:18;;;;;;;12.37;9.37;;;14.30;99.90;;;;;;5071442;28;20972;-46
2022/09/25 04:29:44;;;;;;;10.17;9.10;;;14.30;99.90;;;;;;5071299;28;20438;-45
2022/09/25 04:34:55;;;;;;;9.27;8.37;;;14.30;99.90;;;;;;5071376;28;20943;-45
2022/09/25 04:37:22;;;;;;;10.17;9.27;;;14.20;99.90;;;;;;5071384;28;20434;-46
2022/09/25 04:39:50;;;;;;;10.30;9.40;;;14.00;99.90;;;;;;5070936;28;20525;-45
2022/09/25 04:42:16;;;;;;;9.00;8.10;;;14.50;99.90;;;;;;5071270;28;20456;-46
2022/09/25 04:44:43;;;;;;;9.70;8.23;;;14.50;99.90;;;;;;5071368;28;20904;-45
2022/09/25 04:47:09;;;;;;;9.77;8.97;;;14.50;99.90;;;;;;5053036;28;20457;-44
2022/09/25 04:49:37;;;;;;;10.80;8.33;;;14.60;99.90;;;;;;5074559;28;20954;-46
2022/09/25 04:52:05;;;;;;;9.90;8.90;;;14.20;99.90;;;;;;5075116;28;20515;-45
2022/09/25 04:54:31;;;;;;;9.47;8.60;;;14.20;99.90;;;;;;5074989;28;20427;-45
2022/09/25 04:57:01;;;;;;;9.70;8.90;;;14.40;99.90;;;;;;5075781;28;20441;-46
2022/09/25 04:59:28;;;;;;;9.73;8.83;;;14.00;99.90;;;;;;5056650;28;20980;-45
2022/09/25 05:01:55;;;;;;;13.20;9.00;;;14.30;99.90;;;;;;5074989;28;20450;-45
2022/09/25 05:04:21;;;;;;;9.63;8.73;;;14.40;99.90;;;;;;5075329;28;20433;-44
2022/09/25 05:06:48;;;;;;;9.93;9.00;;;14.30;99.90;;;;;;5075545;28;20448;-44
2022/09/25 05:09:14;;;;;;;10.80;9.70;;;14.00;99.90;;;;;;5075106;28;20429;-45
2022/09/25 05:11:41;;;;;;;11.63;9.40;;;14.30;99.90;;;;;;5075047;28;20494;-46
2022/09/25 05:14:09;;;;;;;10.53;9.53;;;14.40;99.90;;;;;;5075083;28;20455;-44
2022/09/25 05:16:35;;;;;;;11.73;10.63;;;14.20;99.90;;;;;;5074901;28;20545;-44
2022/09/25 05:19:02;;;;;;;10.20;9.30;;;14.30;99.90;;;;;;5074508;28;20453;-44
2022/09/25 05:21:28;;;;;;;10.70;9.60;;;14.70;99.90;;;;;;5086990;28;20474;-48
2022/09/25 05:23:55;;;;;;;10.00;9.03;;;14.70;99.90;;;;;;5095193;28;20441;-45
2022/09/25 05:26:22;;;;;;;9.87;9.00;;;14.00;99.90;;;;;;5094842;28;20436;-44
2022/09/25 05:28:50;;;;;;;10.70;9.60;;;13.90;99.90;;;;;;5094611;28;20978;-45
2022/09/25 05:31:18;;;;;;;10.63;9.53;;;14.30;99.90;;;;;;5094320;28;20972;-45
2022/09/25 05:33:44;;;;;;;12.67;9.80;;;14.10;99.90;;;;;;5094691;28;20923;-44
2022/09/25 05:36:11;;;;;;;10.40;9.40;;;14.20;99.90;;;;;;5076938;28;20524;-47
2022/09/25 05:38:39;;;;;;;10.03;9.20;;;13.70;99.90;;;;;;5094511;28;20424;-45
2022/09/25 05:41:08;;;;;;;9.97;9.00;;;14.40;99.90;;;;;;5094530;28;20535;-45
2022/09/25 05:43:39;;;;;;;11.07;9.73;;;14.10;99.90;;;;;;5094590;28;20455;-45
2022/09/25 05:46:06;;;;;;;10.57;9.67;;;14.10;99.90;;;;;;5094596;28;20429;-47
2022/09/25 05:48:34;;;;;;;11.97;10.67;;;14.10;99.90;;;;;;5094171;28;20565;-45
2022/09/25 05:51:00;;;;;;;12.90;10.73;;;14.30;99.90;;;;;;5094537;28;20444;-45
2022/09/25 05:53:29;;;;;;;10.70;9.70;;;14.10;99.90;;;;;;5094227;28;20970;-46
2022/09/25 05:55:57;;;;;;;11.63;10.53;;;13.90;99.90;;;;;;5076055;28;20548;-46
2022/09/25 05:58:25;;;;;;;12.50;10.13;;;14.00;99.90;;;;;;5093809;28;20436;-46
2022/09/25 06:00:52;;;;;;;12.13;11.03;;;14.00;99.90;;;;;;5094163;28;20807;-44
2022/09/25 06:03:19;;;;;;;11.40;9.90;;;14.00;99.90;;;;;;5093746;28;20446;-45
2022/09/25 06:05:48;;;;;;;11.03;10.03;;;13.50;99.90;;;;;;5075957;28;20474;-48
2022/09/25 06:08:15;;;;;;;12.87;11.50;;;14.00;99.90;;;;;;5093803;28;20448;-45
2022/09/25 06:10:42;;;;;;;11.70;10.60;;;13.90;99.90;;;;;;5093686;28;20435;-44
2022/09/25 06:13:09;;;;;;;13.40;11.87;;;14.20;99.90;;;;;;5093847;28;20516;-45
2022/09/25 06:15:37;;;;;;;15.07;11.97;;;14.00;99.90;;;;;;5093993;28;20942;-45
2022/09/25 06:18:04;;;;;;;13.10;11.17;;;14.30;99.90;;;;;;5093792;28;20433;-45
2022/09/25 06:20:31;;;;;;;12.47;11.00;;;14.10;99.90;;;;;;5088691;28;20438;-44
2022/09/25 06:22:59;;;;;;;12.40;11.20;;;14.20;99.90;;;;;;5073282;28;20476;-45
2022/09/25 06:25:31;;;;;;;12.57;11.37;;;14.20;99.90;;;;;;5073542;28;20480;-47
2022/09/25 06:27:59;;;;;;;10.87;9.93;;;14.20;99.90;;;;;;5073503;28;20488;-44
2022/09/25 06:30:33;;;;;;;13.67;11.27;;;14.20;99.90;;;;;;5054957;28;20817;-45
2022/09/25 06:33:00;;;;;;;11.53;10.53;;;14.50;99.90;;;;;;5073187;28;20484;-45
2022/09/25 06:35:28;;;;;;;11.50;10.40;;;14.80;99.90;;;;;;5073213;28;20441;-44
2022/09/25 06:37:57;;;;;;;11.77;10.60;;;14.90;99.90;;;;;;5073418;28;20451;-47
2022/09/25 06:40:26;;;;;;;12.53;10.93;;;14.80;99.90;;;;;;5072936;28;20433;-44
2022/09/25 06:42:55;;;;;;;12.03;10.97;;;15.00;99.90;;;;;;5072992;28;20980;-45
2022/09/25 06:45:22;;;;;;;12.50;11.20;;;14.80;99.90;;;;;;5073114;28;20434;-45
2022/09/25 06:47:48;;;;;;;13.00;11.33;;;15.20;99.90;;;;;;5072900;28;20445;-45
2022/09/25 06:50:15;;;;;;;11.80;10.80;;;15.10;99.90;;;;;;5072630;28;20426;-45
2022/09/25 06:52:43;;;;;;;13.47;11.60;;;15.20;99.90;;;;;;5072858;28;20477;-43
2022/09/25 06:55:10;;;;;;;12.97;11.77;;;15.10;99.90;;;;;;5072967;28;20487;-45
2022/09/25 06:57:38;;;;;;;13.20;11.90;;;15.20;99.90;;;;;;5072958;28;20803;-46
2022/09/25 07:00:05;;;;;;;11.97;10.77;;;15.70;99.90;;;;;;5072353;28;20429;-45
2022/09/25 07:05:17;;;;;;;12.03;11.03;;;15.30;99.90;;;;;;5072646;28;20480;-45
2022/09/25 07:07:45;;;;;;;13.23;11.90;;;15.50;99.90;;;;;;5072538;28;20437;-45
2022/09/25 07:10:11;;;;;;;13.00;11.70;;;15.50;99.90;;;;;;5071832;28;20430;-46
2022/09/25 07:12:40;;;;;;;14.27;12.93;;;15.40;99.90;;;;;;5072229;28;20480;-46
2022/09/25 07:15:07;;;;;;;12.13;11.03;;;15.50;99.90;;;;;;5072621;28;20429;-45
2022/09/25 07:17:34;;;;;;;13.13;11.93;;;15.50;99.90;;;;;;5072501;28;20438;-45
2022/09/25 07:20:01;;;;;;;13.53;12.23;;;15.60;99.90;;;;;;5054831;28;20496;-45
2022/09/25 07:22:29;;;;;;;14.13;11.50;;;15.60;99.90;;;;;;5092041;28;20814;-46
2022/09/25 07:24:56;;;;;;;15.50;12.50;;;15.70;99.90;;;;;;5092424;28;20437;-47
2022/09/25 07:27:22;;;;;;;14.63;13.20;;;15.70;99.90;;;;;;5092605;28;20435;-46
2022/09/25 07:29:52;;;;;;;13.33;12.03;;;15.60;99.90;;;;;;5091879;28;20442;-45
2022/09/25 07:32:19;;;;;;;14.30;12.87;;;16.00;99.90;;;;;;5074314;28;20583;-45
2022/09/25 07:34:48;;;;;;;14.30;12.40;;;15.80;99.90;;;;;;5092020;28;20942;-48
2022/09/25 07:37:15;;;;;;;13.27;11.97;;;15.60;99.90;;;;;;5092046;28;20448;-45
2022/09/25 07:39:42;;;;;;;13.80;12.50;;;16.30;99.90;;;;;;5091579;28;20443;-47
2022/09/25 07:42:09;;;;;;;13.20;11.93;;;15.80;99.90;;;;;;5091801;28;20444;-46
2022/09/25 07:44:35;;;;;;;13.67;12.27;;;16.20;99.90;;;;;;5092102;28;20449;-46
2022/09/25 07:47:04;;;;;;;12.43;11.27;;;16.10;99.90;;;;;;5092151;28;20437;-48
2022/09/25 07:49:30;;;;;;;15.10;11.47;;;16.30;99.90;;;;;;5091477;28;20455;-46
2022/09/25 07:51:57;;;;;;;14.00;12.60;;;16.30;99.90;;;;;;5091895;28;20450;-45
2022/09/25 07:54:24;;;;;;;13.30;12.00;;;16.50;99.90;;;;;;5091819;28;20525;-48
2022/09/25 07:56:51;;;;;;;12.43;11.33;;;16.50;99.90;;;;;;5091950;28;20432;-46
2022/09/25 07:59:18;;;;;;;13.20;12.00;;;16.60;99.90;;;;;;5092368;28;20444;-46
2022/09/25 08:01:45;;;;;;;13.50;12.30;;;16.70;99.90;;;;;;5092437;28;20457;-48
2022/09/25 08:04:13;;;;;;;13.87;12.47;;;16.80;99.90;;;;;;5092572;28;20433;-45
2022/09/25 08:06:39;;;;;;;15.27;12.80;;;16.70;99.90;;;;;;5092065;28;20511;-45
2022/09/25 08:09:06;;;;;;;12.73;11.53;;;16.70;99.90;;;;;;5091593;28;20859;-45
2022/09/25 08:11:33;;;;;;;12.47;11.37;;;16.90;99.90;;;;;;5091866;28;20493;-45
2022/09/25 08:14:00;;;;;;;14.23;12.80;;;16.80;99.90;;;;;;5091560;28;20473;-45
2022/09/25 08:16:27;;;;;;;12.97;11.77;;;16.90;99.90;;;;;;5091621;28;20545;-46
2022/09/25 08:18:53;;;;;;;13.40;12.17;;;16.60;99.70;;;;;;5073445;28;20464;-45
2022/09/25 08:21:21;;;;;;;12.60;11.50;;;16.90;99.70;;;;;;5080264;28;20441;-47
2022/09/25 08:23:49;;;;;;;13.00;11.33;;;16.90;99.60;;;;;;5071905;28;20440;-44
2022/09/25 08:26:16;;;;;;;12.27;11.20;;;17.00;99.60;;;;;;5071792;28;20443;-46
2022/09/25 08:28:43;;;;;;;13.70;12.50;;;17.10;99.60;;;;;;5071207;28;20780;-48
2022/09/25 08:31:12;;;;;;;13.20;11.87;;;17.10;99.50;;;;;;5071346;28;20463;-46
2022/09/25 08:33:39;;;;;;;13.67;12.30;;;17.20;99.50;;;;;;5071210;28;20564;-45
2022/09/25 08:36:06;;;;;;;13.47;12.17;;;17.10;99.30;;;;;;5070887;28;20426;-47
2022/09/25 08:38:34;;;;;;;12.80;11.63;;;17.40;99.30;;;;;;5071146;28;20439;-45
2022/09/25 08:41:04;;;;;;;13.10;11.80;;;17.40;99.10;;;;;;5071978;28;20808;-45
2022/09/25 08:43:35;;;;;;;14.53;13.13;;;17.50;98.90;;;;;;5071511;28;20450;-45
2022/09/25 08:49:05;;;;;;;14.23;12.97;;;18.20;98.90;;;;;;5070955;28;20469;-45
2022/09/25 08:51:36;;;;;;;14.07;12.77;;;17.70;98.60;;;;;;5071743;28;20468;-47
2022/09/25 08:54:05;;;;;;;13.33;12.00;;;17.70;98.50;;;;;;5071052;28;20542;-44
2022/09/25 08:56:34;;;;;;;13.03;11.83;;;17.60;98.40;;;;;;5070664;28;20507;-44
2022/09/25 08:59:04;;;;;;;12.80;11.23;;;17.80;98.40;;;;;;5071284;28;20955;-45
2022/09/25 09:01:43;;;;;;;13.80;12.60;;;17.60;98.20;;;;;;5071853;28;20456;-46
2022/09/25 09:04:18;;;;;;;14.57;13.07;;;17.90;98.20;;;;;;5071733;28;20455;-48
2022/09/25 09:06:47;;;;;;;14.53;13.13;;;17.90;98.10;;;;;;5071221;28;20471;-46
2022/09/25 09:09:20;;;;;;;16.23;12.47;;;17.90;98.10;;;;;;5071679;28;20758;-46
2022/09/25 09:11:51;;;;;;;13.80;12.60;;;18.00;98.00;;;;;;5072138;28;20457;-46
2022/09/25 09:14:21;;;;;;;13.97;12.67;;;18.00;97.80;;;;;;5055005;28;20476;-46
2022/09/25 09:16:55;;;;;;;15.20;13.60;;;18.10;97.80;;;;;;5071951;28;20448;-46
2022/09/25 09:19:21;;;;;;;14.40;12.20;;;18.10;97.70;;;;;;5053292;28;20427;-46
2022/09/25 09:21:56;;;;;;;13.37;12.07;;;18.00;97.60;;;;;;5086020;28;20462;-45
2022/09/25 09:24:32;;;;;;;14.70;13.03;;;18.10;97.70;;;;;;5091250;28;20431;-46
2022/09/25 09:27:18;;;;;;;14.07;12.80;;;17.90;97.70;;;;;;5090691;28;20480;-46
2022/09/25 09:30:08;;;;;;;13.13;11.93;;;17.70;97.50;;;;;;5090385;28;20445;-47
2022/09/25 09:33:00;;;;;;;13.73;12.40;;;18.00;98.00;;;;;;5090791;28;20518;-46
2022/09/25 09:35:34;;;;;;;17.27;14.00;;;17.80;97.90;;;;;;5077636;28;20462;-46
2022/09/25 09:38:10;;;;;;;12.93;11.73;;;17.90;98.00;;;;;;5093963;28;20434;-46
2022/09/25 09:40:55;;;;;;;14.40;13.10;;;17.50;97.80;;;;;;5093822;28;20421;-46
2022/09/25 09:43:42;;;;;;;14.13;12.83;;;17.80;97.90;;;;;;5094247;28;20469;-46
2022/09/25 09:46:18;;;;;;;13.47;12.17;;;17.60;97.70;;;;;;5094646;28;20427;-46
2022/09/25 09:48:53;;;;;;;14.43;13.03;;;17.80;97.80;;;;;;5093631;28;21106;-46
2022/09/25 09:51:24;;;;;;;14.90;13.60;;;18.00;98.00;;;;;;5094023;28;20421;-46
2022/09/25 09:53:54;;;;;;;15.53;13.80;;;17.60;97.90;;;;;;5093707;28;20497;-45
2022/09/25 09:56:25;;;;;;;14.00;12.53;;;17.60;98.00;;;;;;5094106;28;20438;-46
2022/09/25 09:58:56;;;;;;;14.57;13.27;;;17.60;97.90;;;;;;5093662;28;20439;-45
2022/09/25 10:01:25;;;;;;;14.57;13.23;;;18.10;98.30;;;;;;5094099;28;20441;-45
2022/09/25 10:04:04;;;;;;;18.60;14.07;;;17.60;98.10;;;;;;5094596;28;20439;-47
2022/09/25 10:06:34;;;;;;;16.33;14.77;;;17.50;98.30;;;;;;5094134;28;20441;-46
2022/09/25 10:09:01;;;;;;;14.10;12.80;;;17.10;98.30;;;;;;5075374;28;20451;-46
2022/09/25 10:11:31;;;;;;;14.37;13.07;;;17.50;98.50;;;;;;5095042;28;20435;-47
2022/09/25 10:13:59;;;;;;;16.23;14.63;;;17.40;98.40;;;;;;5093800;28;20479;-48
2022/09/25 10:16:26;;;;;;;14.80;13.50;;;17.40;98.50;;;;;;5093579;28;20431;-47
2022/09/25 10:18:59;;;;;;;18.80;15.50;;;17.20;98.40;;;;;;5093132;28;20435;-45
2022/09/25 10:23:58;;;;;;;14.40;13.10;;;17.40;98.60;;;;;;4992512;28;20490;-48
2022/09/25 10:26:27;;;;;;;15.87;14.27;;;17.70;98.70;;;;;;4994175;28;20978;-48
2022/09/25 10:28:57;;;;;;;17.43;15.73;;;17.50;98.60;;;;;;4993820;28;20435;-48
2022/09/25 10:31:26;;;;;;;17.73;15.90;;;17.20;98.30;;;;;;4993313;28;20504;-48
2022/09/25 10:34:01;;;;;;;18.50;14.77;;;17.60;98.50;;;;;;4994403;28;20474;-49
2022/09/25 10:36:33;;;;;;;16.33;14.80;;;17.90;98.70;;;;;;4993790;28;20922;-48
2022/09/25 10:39:01;;;;;;;16.17;14.77;;;17.60;98.50;;;;;;4993227;28;20461;-49
2022/09/25 10:41:31;;;;;;;14.37;13.17;;;18.00;99.10;;;;;;4994016;28;20456;-49
2022/09/25 10:44:00;;;;;;;16.27;14.77;;;17.60;98.60;;;;;;4994048;28;20434;-48
2022/09/25 10:52:05;;;;;;;16.27;14.67;;;17.70;98.50;;;;;;4993586;28;20462;-48
2022/09/25 10:54:32;;;;;;;15.13;13.73;;;17.60;98.40;;;;;;4994000;28;20512;-48
2022/09/25 10:56:59;;;;;;;15.47;13.97;;;17.90;98.40;;;;;;4993837;28;20817;-48
2022/09/25 10:59:27;;;;;;;14.77;13.27;;;18.10;98.30;;;;;;4975849;28;20451;-50
2022/09/25 11:01:55;;;;;;;12.93;11.73;;;17.80;97.90;;;;;;4992837;28;20461;-48
2022/09/25 11:04:26;;;;;;;14.77;13.47;;;17.80;97.80;;;;;;4993681;28;20933;-48
2022/09/25 11:06:57;;;;;;;15.07;13.77;;;18.30;98.00;;;;;;4993920;28;20436;-48
2022/09/25 11:09:26;;;;;;;15.80;14.30;;;18.00;97.80;;;;;;4993361;28;20767;-48
2022/09/25 11:12:03;;;;;;;14.13;12.73;;;17.50;97.30;;;;;;4993037;28;20485;-48
2022/09/25 11:14:33;;;;;;;14.73;13.23;;;17.60;97.20;;;;;;4993486;28;20494;-48
2022/09/25 11:17:04;;;;;;;15.23;13.63;;;17.90;97.30;;;;;;4993137;28;20427;-48
2022/09/25 11:19:33;;;;;;;13.50;12.30;;;18.10;97.30;;;;;;4975624;28;20464;-48
2022/09/25 11:22:16;;;;;;;15.60;14.20;;;18.50;97.20;;;;;;4993305;28;20475;-47
2022/09/25 11:24:57;;;;;;;14.37;13.00;;;18.40;96.90;;;;;;4992888;28;20547;-47
2022/09/25 11:27:30;;;;;;;14.63;13.23;;;18.40;96.50;;;;;;4992524;28;20772;-48
2022/09/25 11:30:04;;;;;;;14.10;12.33;;;18.70;96.70;;;;;;4992888;28;20467;-48
2022/09/25 11:32:38;;;;;;;13.47;12.10;;;19.00;96.40;;;;;;4993271;28;20463;-48
2022/09/25 11:35:33;;;;;;;13.03;11.73;;;19.10;96.00;;;;;;4993054;28;20499;-47
2022/09/25 11:38:11;;;;;;;13.37;12.10;;;19.20;96.00;;;;;;4993209;28;20464;-47
2022/09/25 11:43:41;;;;;;;12.50;11.40;;;19.50;95.70;;;;;;4992956;28;20507;-48
2022/09/25 11:46:20;;;;;;;12.57;11.47;;;19.50;95.20;;;;;;4993309;28;20445;-48
2022/09/25 11:48:55;;;;;;;12.27;11.10;;;19.60;95.10;;;;;;4992732;28;20445;-48
2022/09/25 11:51:34;;;;;;;13.53;12.40;;;19.80;95.00;;;;;;4992290;28;20451;-48
2022/09/25 11:54:12;;;;;;;12.90;11.47;;;19.50;94.50;;;;;;4992590;28;20524;-50
2022/09/25 11:56:45;;;;;;;11.30;10.20;;;19.70;94.70;;;;;;4992936;28;20429;-49
2022/09/25 11:59:25;;;;;;;12.67;11.37;;;19.40;94.70;;;;;;4992376;28;20437;-49
2022/09/25 12:02:01;;;;;;;11.00;9.67;;;19.70;94.80;;;;;;4993103;28;20463;-48
2022/09/25 12:04:54;;;;;;;10.50;9.60;;;19.80;94.70;;;;;;4993073;28;20457;-48
2022/09/25 12:07:43;;;;;;;11.33;10.23;;;19.60;94.60;;;;;;4992452;28;20961;-48
2022/09/25 12:10:34;;;;;;;10.73;9.70;;;19.30;94.40;;;;;;4992167;28;20438;-47
2022/09/25 12:13:06;;;;;;;10.20;9.00;;;19.40;94.20;;;;;;4990221;28;20497;-50
2022/09/25 12:15:46;;;;;;;9.83;8.83;;;19.60;94.30;;;;;;4992612;28;20465;-47
2022/09/25 12:18:23;;;;;;;8.97;8.07;;;19.60;93.80;;;;;;4992411;28;20814;-48
2022/09/25 12:20:54;;;;;;;9.57;7.20;;;19.70;93.80;;;;;;4992399;28;20453;-50
2022/09/25 12:23:27;;;;;;;9.10;8.20;;;19.60;93.50;;;;;;4992449;28;20475;-47
2022/09/25 12:26:03;;;;;;;9.73;8.63;;;19.60;93.30;;;;;;4992632;28;20433;-48
2022/09/25 12:28:40;;;;;;;10.23;9.20;;;19.50;93.10;;;;;;4992076;28;20476;-48
2022/09/25 12:31:16;;;;;;;10.20;9.10;;;19.30;93.40;;;;;;4992497;28;20444;-49
2022/09/25 12:33:51;;;;;;;9.83;8.83;;;19.60;93.60;;;;;;4992276;28;21069;-49
2022/09/25 12:36:24;;;;;;;11.10;10.00;;;19.60;93.80;;;;;;4992474;28;20453;-48
2022/09/25 12:38:55;;;;;;;10.27;9.37;;;19.40;93.80;;;;;;4992126;28;20448;-48
2022/09/25 12:41:29;;;;;;;8.80;8.00;;;19.60;93.80;;;;;;4992268;28;20417;-48
2022/09/25 12:44:02;;;;;;;8.60;7.80;;;19.90;93.80;;;;;;4992261;28;20430;-50
2022/09/25 12:46:32;;;;;;;8.00;7.30;;;19.80;93.50;;;;;;4992144;28;20434;-48
2022/09/25 12:49:08;;;;;;;8.13;7.43;;;19.80;93.20;;;;;;4991739;28;20436;-48
2022/09/25 12:51:40;;;;;;;8.33;7.53;;;20.10;92.90;;;;;;4991738;28;20968;-47
2022/09/25 12:54:15;;;;;;;9.63;8.57;;;20.10;92.60;;;;;;4991817;28;20490;-47
2022/09/25 12:56:50;;;;;;;7.43;6.83;;;19.80;92.70;;;;;;4991980;28;20875;-48
2022/09/25 12:59:21;;;;;;;8.30;7.43;;;19.70;92.60;;;;;;4991173;28;20855;-49
2022/09/25 13:02:04;;;;;;;8.23;7.40;;;20.10;92.70;;;;;;4991674;28;20464;-49
2022/09/25 13:04:43;;;;;;;7.63;6.93;;;19.90;92.30;;;;;;4991838;28;20445;-48
2022/09/25 13:07:16;;;;;;;8.33;7.53;;;19.90;92.20;;;;;;4991895;28;20449;-48
2022/09/25 13:09:44;;;;;;;8.27;6.67;;;19.90;92.10;;;;;;4992554;28;20484;-47
2022/09/25 13:12:24;;;;;;;8.07;7.20;;;20.10;92.20;;;;;;4995556;28;20457;-47
2022/09/25 13:14:55;;;;;;;6.73;6.13;;;19.50;91.70;;;;;;4995665;28;20860;-49
2022/09/25 13:17:23;;;;;;;7.00;6.40;;;20.20;92.00;;;;;;4995346;28;20433;-49